DBBB/COO METAR and TAF weather

Enter ICAO airport designator
Station Type Date Time Source
DBBB METAR 2019/11/13 02:00 UTC NOAA

DBBB 130200Z 23003KT 9999 FEW012 27/25 Q1008 NOSIG


Station Type Date Time Source
DBBB Decoded METAR 2019/11/13 02:00 UTC NOAA

Cotonou, Benin (DBBB) 06-21N 002-23E 9M
Nov 12, 2019 - 09:00 PM EST / 2019.11.13 0200 UTC
Wind: from the SW (230 degrees) at 3 MPH (3 KT):0
Visibility: greater than 7 mile(s):0
Sky conditions: mostly clear
Temperature: 80 F (27 C)
Dew Point: 77 F (25 C)
Relative Humidity: 88%
Pressure (altimeter): 29.77 in. Hg (1008 hPa)
ob: DBBB 130200Z 23003KT 9999 FEW012 27/25 Q1008 NOSIG
cycle: 2

Station Type Date Time Source
DBBB TAF 2019/11/12 18:25 UTC NOAA

TAF DBBB 121700Z 1218/1324 22005KT 9999 SCT012

Example: see airport list